Time;durP1;ratioP1;P1;durP2;ratioP2;P2;SDS_P1;SDS_P2;PMS_P1;PMS_P2;Temp;Humidity;BMP_temperature;BMP_pressure;BME280_temperature;BME280_humidity;BME280_pressure;Samples;Min_cycle;Max_cycle;Signal;HPM_P1;HPM_P2
2022/02/13 00:01:13;;;;;;;13.30;7.73;;;2.40;99.90;;;;;;5025318;28;20202;-67
2022/02/13 00:03:41;;;;;;;14.50;7.63;;;2.40;99.90;;;;;;5027418;28;20220;-67
2022/02/13 00:06:10;;;;;;;11.70;7.50;;;2.40;99.90;;;;;;5024905;28;20240;-67
2022/02/13 00:08:39;;;;;;;12.30;7.10;;;2.40;99.90;;;;;;5029659;28;20197;-67
2022/02/13 00:11:16;;;;;;;11.97;7.13;;;2.40;99.90;;;;;;5028335;28;20586;-67
2022/02/13 00:13:46;;;;;;;11.60;7.57;;;2.40;99.90;;;;;;5026514;28;20213;-67
2022/02/13 00:16:14;;;;;;;14.57;7.63;;;2.30;99.90;;;;;;5035768;28;20205;-67
2022/02/13 00:18:43;;;;;;;9.03;6.80;;;2.30;99.90;;;;;;5028114;28;20671;-67
2022/02/13 00:21:32;;;;;;;13.63;7.47;;;2.30;99.90;;;;;;5020080;28;20207;-67
2022/02/13 00:24:00;;;;;;;14.17;7.37;;;2.30;99.90;;;;;;5030399;28;20223;-67
2022/02/13 00:26:29;;;;;;;12.03;7.07;;;2.30;99.90;;;;;;5015949;28;20226;-67
2022/02/13 00:28:58;;;;;;;12.60;7.20;;;2.30;99.90;;;;;;5028270;28;20197;-67
2022/02/13 00:31:27;;;;;;;10.53;7.10;;;2.30;99.90;;;;;;5023509;28;20201;-67
2022/02/13 00:33:55;;;;;;;13.27;6.97;;;2.20;99.90;;;;;;5035956;28;20211;-67
2022/02/13 00:36:24;;;;;;;10.53;7.10;;;2.20;99.90;;;;;;5026759;28;20208;-67
2022/02/13 00:38:52;;;;;;;12.23;7.57;;;2.20;99.90;;;;;;5034481;28;20196;-67
2022/02/13 00:41:21;;;;;;;9.80;7.00;;;2.20;99.90;;;;;;5027317;28;20201;-66
2022/02/13 00:43:49;;;;;;;11.20;7.30;;;2.20;99.90;;;;;;5033291;28;20197;-67
2022/02/13 00:46:22;;;;;;;12.47;7.03;;;2.20;99.90;;;;;;5034511;28;20240;-67
2022/02/13 00:48:50;;;;;;;12.07;6.93;;;2.20;99.90;;;;;;5032654;28;20611;-67
2022/02/13 00:51:20;;;;;;;13.17;6.97;;;2.20;99.90;;;;;;5023582;28;20236;-67
2022/02/13 00:53:49;;;;;;;13.47;7.47;;;2.10;99.90;;;;;;5027330;28;20484;-67
2022/02/13 00:56:18;;;;;;;12.70;7.03;;;2.00;99.90;;;;;;5024491;28;20297;-67
2022/02/13 00:58:46;;;;;;;10.33;6.63;;;2.00;99.90;;;;;;5023655;28;20201;-67
2022/02/13 01:01:15;;;;;;;13.97;7.20;;;2.00;99.90;;;;;;5015549;28;20198;-67
2022/02/13 01:03:45;;;;;;;9.93;7.40;;;2.00;99.90;;;;;;5022431;28;20206;-67
2022/02/13 01:06:15;;;;;;;11.53;7.03;;;1.90;99.90;;;;;;5035735;28;20222;-67
2022/02/13 01:08:44;;;;;;;9.67;7.67;;;1.90;99.90;;;;;;5028077;28;20212;-67
2022/02/13 01:11:15;;;;;;;10.63;6.80;;;1.90;99.90;;;;;;5012990;28;20208;-67
2022/02/13 01:13:46;;;;;;;11.40;6.47;;;1.90;99.90;;;;;;5024073;28;20279;-67
2022/02/13 01:16:14;;;;;;;16.50;7.53;;;1.90;99.90;;;;;;5025960;28;20220;-67
2022/02/13 01:18:44;;;;;;;11.90;7.10;;;1.80;99.90;;;;;;5027505;28;20665;-67
2022/02/13 01:21:13;;;;;;;12.20;7.37;;;1.80;99.90;;;;;;5008208;28;20228;-67
2022/02/13 01:23:41;;;;;;;12.90;7.23;;;1.80;99.90;;;;;;5021166;28;20201;-67
2022/02/13 01:26:10;;;;;;;10.57;6.90;;;1.70;99.90;;;;;;5039483;28;20201;-67
2022/02/13 01:28:39;;;;;;;15.70;7.40;;;1.70;99.90;;;;;;5029358;28;20213;-66
2022/02/13 01:31:09;;;;;;;11.63;7.03;;;1.70;99.90;;;;;;5027937;28;20212;-66
2022/02/13 01:33:37;;;;;;;11.23;7.37;;;1.80;99.90;;;;;;5026236;28;20227;-67
2022/02/13 01:36:08;;;;;;;10.53;7.10;;;1.80;99.90;;;;;;5018028;28;20217;-66
2022/02/13 01:38:37;;;;;;;13.87;7.10;;;1.70;99.90;;;;;;5027988;28;20200;-67
2022/02/13 01:41:06;;;;;;;8.37;6.93;;;1.70;99.90;;;;;;5023372;28;20281;-66
2022/02/13 01:43:35;;;;;;;12.97;6.80;;;1.70;99.90;;;;;;5036276;28;20292;-66
2022/02/13 01:46:04;;;;;;;13.63;6.80;;;1.70;99.90;;;;;;5024902;28;20207;-66
2022/02/13 01:48:32;;;;;;;8.93;6.40;;;1.70;99.90;;;;;;5028226;28;20225;-67
2022/02/13 01:51:04;;;;;;;11.30;6.73;;;1.60;99.90;;;;;;5016978;28;20204;-67
2022/02/13 01:53:50;;;;;;;11.40;6.80;;;1.60;99.90;;;;;;5024407;28;20225;-67
2022/02/13 01:56:19;;;;;;;8.23;6.87;;;1.60;99.90;;;;;;5045239;28;20201;-66
2022/02/13 01:58:47;;;;;;;10.13;6.77;;;1.60;99.90;;;;;;5028225;28;20208;-66
2022/02/13 02:01:16;;;;;;;10.33;7.07;;;1.60;99.90;;;;;;5025514;28;20209;-67
2022/02/13 02:03:46;;;;;;;10.87;7.07;;;1.50;99.90;;;;;;5027946;28;20204;-67
2022/02/13 02:06:14;;;;;;;8.87;6.43;;;1.50;99.90;;;;;;5020859;28;20393;-67
2022/02/13 02:08:43;;;;;;;10.87;7.07;;;1.50;99.90;;;;;;5011022;28;20189;-67
2022/02/13 02:11:13;;;;;;;11.60;6.80;;;1.50;99.90;;;;;;5024769;28;20193;-67
2022/02/13 02:13:43;;;;;;;10.63;6.90;;;1.50;99.90;;;;;;5028026;28;20217;-67
2022/02/13 02:16:12;;;;;;;12.03;6.70;;;1.50;99.90;;;;;;5036342;28;20662;-67
2022/02/13 02:18:40;;;;;;;11.93;6.73;;;1.50;99.90;;;;;;5026832;28;20289;-67
2022/02/13 02:21:09;;;;;;;12.23;6.77;;;1.40;99.90;;;;;;5028379;28;20194;-67
2022/02/13 02:23:39;;;;;;;10.17;7.27;;;1.40;99.90;;;;;;5027513;28;20198;-67
2022/02/13 02:26:10;;;;;;;8.87;6.87;;;1.50;99.90;;;;;;5023129;28;20231;-67
2022/02/13 02:28:39;;;;;;;17.30;7.30;;;1.50;99.90;;;;;;5021907;28;20436;-66
2022/02/13 02:31:07;;;;;;;11.37;7.43;;;1.40;99.90;;;;;;5028133;28;20197;-67
2022/02/13 02:33:36;;;;;;;12.43;7.30;;;1.40;99.90;;;;;;5032433;28;20223;-67
2022/02/13 02:36:05;;;;;;;12.23;7.03;;;1.40;99.90;;;;;;5035437;28;20211;-66
2022/02/13 02:38:33;;;;;;;11.30;6.87;;;1.40;99.90;;;;;;5030505;28;20243;-66
2022/02/13 02:41:03;;;;;;;10.87;6.70;;;1.40;99.90;;;;;;5026762;28;20208;-67
2022/02/13 02:43:31;;;;;;;10.73;6.87;;;1.40;99.90;;;;;;5027583;28;20228;-66
2022/02/13 02:46:00;;;;;;;17.07;7.30;;;1.40;99.90;;;;;;5033168;28;20212;-67
2022/02/13 02:48:28;;;;;;;14.63;7.67;;;1.40;99.90;;;;;;5030853;28;20240;-67
2022/02/13 02:50:57;;;;;;;9.87;6.87;;;1.40;99.90;;;;;;5028538;28;20185;-67
2022/02/13 02:53:25;;;;;;;9.40;7.03;;;1.40;99.90;;;;;;5031843;28;20209;-66
2022/02/13 02:55:54;;;;;;;12.50;7.20;;;1.40;99.90;;;;;;5031231;28;20210;-66
2022/02/13 02:58:25;;;;;;;10.83;6.30;;;1.40;99.90;;;;;;5030956;28;20209;-67
2022/02/13 03:00:56;;;;;;;11.00;6.97;;;1.40;99.90;;;;;;5033421;28;20209;-66
2022/02/13 03:03:24;;;;;;;9.93;7.13;;;1.40;99.90;;;;;;5026014;28;20287;-66
2022/02/13 03:05:53;;;;;;;9.53;6.77;;;1.40;99.90;;;;;;5027870;28;20237;-67
2022/02/13 03:08:22;;;;;;;10.97;6.77;;;1.30;99.90;;;;;;5024022;28;20197;-67
2022/02/13 03:10:51;;;;;;;9.80;7.27;;;1.30;99.90;;;;;;5031784;28;20204;-67
2022/02/13 03:13:21;;;;;;;10.20;7.07;;;1.20;99.90;;;;;;5033723;28;20198;-67
2022/02/13 03:15:53;;;;;;;13.37;7.30;;;1.30;99.90;;;;;;5038647;28;20734;-66
2022/02/13 03:18:22;;;;;;;11.80;6.80;;;1.20;99.90;;;;;;5037027;28;20210;-67
2022/02/13 03:20:52;;;;;;;8.67;6.77;;;1.20;99.90;;;;;;5031727;28;20203;-66
2022/02/13 03:23:20;;;;;;;11.00;7.30;;;1.20;99.90;;;;;;5035480;28;20213;-67
2022/02/13 03:25:48;;;;;;;7.70;6.60;;;1.20;99.90;;;;;;5029578;28;20659;-67
2022/02/13 03:28:17;;;;;;;12.43;7.23;;;1.30;99.90;;;;;;5023775;28;20212;-66
2022/02/13 03:30:46;;;;;;;9.33;6.80;;;1.30;99.90;;;;;;5034530;28;20201;-66
2022/02/13 03:33:15;;;;;;;13.60;6.80;;;1.30;99.90;;;;;;5037143;28;20301;-66
2022/02/13 03:35:44;;;;;;;10.53;7.30;;;1.40;99.90;;;;;;5028012;28;20213;-66
2022/02/13 03:38:13;;;;;;;11.40;6.90;;;1.40;99.90;;;;;;5025003;28;20206;-66
2022/02/13 03:40:42;;;;;;;10.40;7.30;;;1.40;99.90;;;;;;5033562;28;20201;-66
2022/02/13 03:43:10;;;;;;;13.97;7.23;;;1.40;99.90;;;;;;5026011;28;20201;-67
2022/02/13 03:45:38;;;;;;;12.40;7.53;;;1.40;99.90;;;;;;5037388;28;20184;-66
2022/02/13 03:48:09;;;;;;;10.93;7.30;;;1.40;99.90;;;;;;5023374;28;20206;-66
2022/02/13 03:50:39;;;;;;;12.17;8.00;;;1.40;99.90;;;;;;5039010;28;20261;-66
2022/02/13 03:53:08;;;;;;;9.03;6.47;;;1.50;99.90;;;;;;5031267;28;20206;-67
2022/02/13 03:55:36;;;;;;;11.60;6.67;;;1.50;99.90;;;;;;5029133;28;20205;-67
2022/02/13 03:58:05;;;;;;;8.37;7.00;;;1.50;99.90;;;;;;5028622;28;20214;-66
2022/02/13 04:00:35;;;;;;;12.23;7.23;;;1.50;99.90;;;;;;5031886;28;20190;-67
2022/02/13 04:03:04;;;;;;;10.00;7.07;;;1.40;99.90;;;;;;5029561;28;20201;-67
2022/02/13 04:05:32;;;;;;;10.10;7.07;;;1.40;99.90;;;;;;5033612;28;20185;-67
2022/02/13 04:08:02;;;;;;;10.57;7.60;;;1.50;99.90;;;;;;5028356;28;20214;-66
2022/02/13 04:10:32;;;;;;;12.90;7.47;;;1.60;99.90;;;;;;5023049;28;20425;-66
2022/02/13 04:13:04;;;;;;;18.20;7.57;;;1.60;99.90;;;;;;5028280;28;20284;-66
2022/02/13 04:15:32;;;;;;;12.07;7.10;;;1.60;99.90;;;;;;5032291;28;20287;-66
2022/02/13 04:18:00;;;;;;;12.80;6.83;;;1.60;99.90;;;;;;5037342;28;20224;-67
2022/02/13 04:20:29;;;;;;;13.30;6.87;;;1.50;99.90;;;;;;5028339;28;20232;-67
2022/02/13 04:22:57;;;;;;;12.63;7.03;;;1.50;99.90;;;;;;5030085;28;20297;-67
2022/02/13 04:25:27;;;;;;;10.33;7.30;;;1.40;99.90;;;;;;5036861;28;20192;-67
2022/02/13 04:27:56;;;;;;;11.27;6.47;;;1.40;99.90;;;;;;5034364;28;20196;-66
2022/02/13 04:30:24;;;;;;;10.43;6.90;;;1.50;99.90;;;;;;5039731;28;20197;-67
2022/02/13 04:32:55;;;;;;;14.10;7.87;;;1.50;99.90;;;;;;5022451;28;20197;-66
2022/02/13 04:35:24;;;;;;;10.33;7.37;;;1.60;99.90;;;;;;5031113;28;20227;-66
2022/02/13 04:37:53;;;;;;;15.93;7.90;;;1.60;99.90;;;;;;5023295;28;20198;-67
2022/02/13 04:40:24;;;;;;;10.70;7.47;;;1.60;99.90;;;;;;5019445;28;20225;-66
2022/02/13 04:42:54;;;;;;;11.77;7.20;;;1.60;99.90;;;;;;5021228;28;20229;-67
2022/02/13 04:45:23;;;;;;;13.23;7.70;;;1.60;99.90;;;;;;5025289;28;20357;-67
2022/02/13 04:47:51;;;;;;;13.23;7.00;;;1.60;99.90;;;;;;5018745;28;20202;-67
2022/02/13 04:50:21;;;;;;;11.00;7.07;;;1.70;99.90;;;;;;5022420;28;20657;-66
2022/02/13 04:52:50;;;;;;;10.97;7.23;;;1.70;99.90;;;;;;5024848;28;20197;-66
2022/02/13 04:55:19;;;;;;;9.07;7.00;;;1.80;99.90;;;;;;5022410;28;20224;-67
2022/02/13 04:57:48;;;;;;;11.90;7.30;;;1.80;99.90;;;;;;5027322;28;20224;-67
2022/02/13 05:00:19;;;;;;;10.03;6.83;;;1.90;99.90;;;;;;5016639;28;20221;-67
2022/02/13 05:03:11;;;;;;;15.50;7.53;;;1.80;99.90;;;;;;5023611;28;20833;-67
2022/02/13 05:05:40;;;;;;;11.77;7.00;;;1.80;99.90;;;;;;5026943;28;20244;-67
2022/02/13 05:08:08;;;;;;;14.30;6.73;;;1.80;99.90;;;;;;5004875;28;20207;-67
2022/02/13 05:10:36;;;;;;;8.00;6.13;;;1.80;99.90;;;;;;5022057;28;20264;-66
2022/02/13 05:13:04;;;;;;;12.10;7.00;;;1.90;99.90;;;;;;5035834;28;20251;-66
2022/02/13 05:15:35;;;;;;;11.50;7.03;;;1.90;99.90;;;;;;5026582;28;20205;-66
2022/02/13 05:18:03;;;;;;;8.30;6.57;;;2.00;99.90;;;;;;5033741;28;20198;-67
2022/02/13 05:20:32;;;;;;;13.37;6.93;;;2.00;99.90;;;;;;5023749;28;20232;-66
2022/02/13 05:23:00;;;;;;;9.67;6.57;;;2.10;99.90;;;;;;5024768;28;20202;-66
2022/02/13 05:25:28;;;;;;;8.10;6.57;;;2.10;99.90;;;;;;5023093;28;20263;-66
2022/02/13 05:27:57;;;;;;;10.60;6.40;;;2.00;99.90;;;;;;5025238;28;20200;-66
2022/02/13 05:30:25;;;;;;;12.80;7.43;;;2.00;99.90;;;;;;5024759;28;20205;-67
2022/02/13 05:32:55;;;;;;;10.77;6.80;;;2.00;99.90;;;;;;5031354;28;20256;-66
2022/02/13 05:35:25;;;;;;;10.63;6.90;;;2.00;99.90;;;;;;5025672;28;20208;-67
2022/02/13 05:37:54;;;;;;;12.60;7.00;;;2.00;99.90;;;;;;5028542;28;20208;-66
2022/02/13 05:40:22;;;;;;;12.47;6.53;;;2.00;99.90;;;;;;5027651;28;20201;-66
2022/02/13 05:42:51;;;;;;;9.03;6.90;;;2.00;99.90;;;;;;5028370;28;20336;-66
2022/02/13 05:45:19;;;;;;;9.37;6.50;;;2.00;99.90;;;;;;5024976;28;20190;-66
2022/02/13 05:47:50;;;;;;;12.63;6.93;;;2.10;99.90;;;;;;5029253;28;20198;-66
2022/02/13 05:50:22;;;;;;;7.83;6.63;;;2.10;99.90;;;;;;5023637;28;20193;-66
2022/02/13 05:52:53;;;;;;;10.97;6.97;;;2.00;99.90;;;;;;5017405;28;20189;-66
2022/02/13 05:55:21;;;;;;;8.67;6.70;;;2.10;99.90;;;;;;5019320;28;20210;-66
2022/02/13 05:57:49;;;;;;;8.13;6.63;;;2.10;99.90;;;;;;5023939;28;20356;-66
2022/02/13 06:00:18;;;;;;;8.27;6.90;;;2.10;99.90;;;;;;5024879;28;20201;-66
2022/02/13 06:02:47;;;;;;;10.50;6.63;;;2.10;99.90;;;;;;5026462;28;20194;-67
2022/02/13 06:05:15;;;;;;;15.40;7.20;;;2.10;99.90;;;;;;5020669;28;20204;-66
2022/02/13 06:07:45;;;;;;;9.57;6.70;;;2.10;99.90;;;;;;5034365;28;20322;-66
2022/02/13 06:10:14;;;;;;;10.73;7.13;;;2.10;99.90;;;;;;5020331;28;20222;-66
2022/02/13 06:12:42;;;;;;;7.63;6.60;;;2.10;99.90;;;;;;5026997;28;20202;-67
2022/02/13 06:15:11;;;;;;;9.33;7.37;;;2.10;99.90;;;;;;5024019;28;20352;-66
2022/02/13 06:17:39;;;;;;;8.47;6.93;;;2.00;99.90;;;;;;5031502;28;20537;-66
2022/02/13 06:20:09;;;;;;;11.13;7.00;;;2.00;99.90;;;;;;5024697;28;20209;-66
2022/02/13 06:22:39;;;;;;;9.87;7.37;;;2.00;99.90;;;;;;5020401;28;20228;-66
2022/02/13 06:25:09;;;;;;;11.00;6.73;;;2.00;99.90;;;;;;5029955;28;20606;-66
2022/02/13 06:27:41;;;;;;;11.63;7.00;;;1.90;99.90;;;;;;5028148;28;20275;-66
2022/02/13 06:30:10;;;;;;;10.30;7.17;;;1.90;99.90;;;;;;5023611;28;20181;-66
2022/02/13 06:32:39;;;;;;;15.13;7.10;;;1.90;99.90;;;;;;5025126;28;20201;-66
2022/02/13 06:35:08;;;;;;;8.50;6.60;;;1.90;99.90;;;;;;5028882;28;20182;-67
2022/02/13 06:37:38;;;;;;;11.73;7.17;;;1.90;99.90;;;;;;5024353;28;20308;-66
2022/02/13 06:40:10;;;;;;;12.17;6.67;;;1.80;99.90;;;;;;5026317;28;20267;-66
2022/02/13 06:42:38;;;;;;;10.13;6.73;;;1.80;99.90;;;;;;5025320;28;20664;-66
2022/02/13 06:45:07;;;;;;;9.47;6.67;;;1.90;99.90;;;;;;5025439;28;20280;-66
2022/02/13 06:47:40;;;;;;;7.87;6.53;;;1.90;99.90;;;;;;5025802;28;20201;-66
2022/02/13 06:50:10;;;;;;;12.17;6.50;;;1.90;99.90;;;;;;5027871;28;20225;-66
2022/02/13 06:52:38;;;;;;;11.77;6.83;;;1.90;99.90;;;;;;5025005;28;20723;-66
2022/02/13 06:55:08;;;;;;;8.90;6.97;;;1.90;99.90;;;;;;5033205;28;20253;-66
2022/02/13 06:57:44;;;;;;;9.17;7.03;;;1.90;99.90;;;;;;5023756;28;20730;-66
2022/02/13 07:00:13;;;;;;;8.37;6.50;;;2.00;99.90;;;;;;5023954;28;21983;-66
2022/02/13 07:02:42;;;;;;;10.47;6.23;;;2.00;99.90;;;;;;5025128;28;20668;-66
2022/02/13 07:05:11;;;;;;;9.80;7.20;;;2.00;99.90;;;;;;5027987;28;20190;-66
2022/02/13 07:07:40;;;;;;;13.70;7.10;;;2.00;99.90;;;;;;5026878;28;20680;-67
2022/02/13 07:10:13;;;;;;;9.53;6.77;;;2.00;99.90;;;;;;5027942;28;20209;-66
2022/02/13 07:12:42;;;;;;;10.27;6.90;;;2.00;99.90;;;;;;5020691;28;20201;-66
2022/02/13 07:15:10;;;;;;;9.37;6.67;;;2.00;99.90;;;;;;5023596;28;20288;-67
2022/02/13 07:17:44;;;;;;;9.83;7.30;;;2.10;99.90;;;;;;5020669;28;20216;-67
2022/02/13 07:20:13;;;;;;;10.53;6.53;;;2.00;99.90;;;;;;5024787;28;20610;-66
2022/02/13 07:22:42;;;;;;;10.00;6.70;;;2.00;99.90;;;;;;5020019;28;20731;-66
2022/02/13 07:25:12;;;;;;;15.23;7.30;;;2.00;99.90;;;;;;5031607;28;20657;-66
2022/02/13 07:27:41;;;;;;;10.07;7.00;;;2.10;99.90;;;;;;5028939;28;20635;-66
2022/02/13 07:30:13;;;;;;;10.03;6.90;;;2.10;99.90;;;;;;5029505;28;20682;-67
2022/02/13 07:32:43;;;;;;;8.50;6.53;;;2.20;99.90;;;;;;5029274;28;20193;-66
2022/02/13 07:35:12;;;;;;;8.47;6.90;;;2.10;99.90;;;;;;5016795;28;20194;-66
2022/02/13 07:37:41;;;;;;;11.37;6.87;;;2.10;99.90;;;;;;5017623;28;20582;-67
2022/02/13 07:40:14;;;;;;;11.57;6.77;;;2.20;99.90;;;;;;5032132;28;20197;-66
2022/02/13 07:42:43;;;;;;;10.27;6.90;;;2.30;99.90;;;;;;5029538;28;20722;-66
2022/02/13 07:45:13;;;;;;;11.03;6.73;;;2.30;99.90;;;;;;5024104;28;20206;-66
2022/02/13 07:47:44;;;;;;;9.47;6.90;;;2.40;99.90;;;;;;5022910;28;20276;-67
2022/02/13 07:50:13;;;;;;;8.23;6.43;;;2.40;99.90;;;;;;5032911;28;20200;-67
2022/02/13 07:52:41;;;;;;;10.30;6.00;;;2.50;99.90;;;;;;5026929;28;20553;-66
2022/02/13 07:55:12;;;;;;;8.43;6.87;;;2.50;99.90;;;;;;5031046;28;20235;-66
2022/02/13 07:57:42;;;;;;;8.23;6.47;;;2.50;99.90;;;;;;5028476;28;20703;-66
2022/02/13 08:00:12;;;;;;;9.53;7.17;;;2.60;99.90;;;;;;5030305;28;20181;-66
2022/02/13 08:02:40;;;;;;;10.07;7.33;;;2.60;99.90;;;;;;5028592;28;20555;-66
2022/02/13 08:05:09;;;;;;;29.93;13.63;;;2.60;99.90;;;;;;5037153;28;20839;-67
2022/02/13 08:07:45;;;;;;;14.77;8.07;;;2.70;99.90;;;;;;5034435;28;20590;-67
2022/02/13 08:10:15;;;;;;;16.00;7.23;;;2.80;99.90;;;;;;5031016;28;20263;-66
2022/02/13 08:12:45;;;;;;;10.67;7.13;;;2.80;99.90;;;;;;5030337;28;20284;-67
2022/02/13 08:15:16;;;;;;;29.07;15.07;;;2.90;99.90;;;;;;5021554;28;20301;-66
2022/02/13 08:17:44;;;;;;;13.07;8.97;;;3.00;99.90;;;;;;5049576;28;20706;-67
2022/02/13 08:20:14;;;;;;;13.57;8.30;;;3.20;99.90;;;;;;5026055;28;20541;-66
2022/02/13 08:22:43;;;;;;;19.33;12.07;;;3.30;99.90;;;;;;5035214;28;20732;-66
2022/02/13 08:25:16;;;;;;;53.27;23.30;;;3.40;99.90;;;;;;5014863;28;20335;-67
2022/02/13 08:27:45;;;;;;;15.00;9.10;;;3.60;99.90;;;;;;5027285;28;20685;-66
2022/02/13 08:30:16;;;;;;;13.47;8.60;;;3.80;99.90;;;;;;5025345;28;20197;-67
2022/02/13 08:32:45;;;;;;;10.17;7.10;;;3.90;99.90;;;;;;5022629;28;20887;-66
2022/02/13 08:35:13;;;;;;;10.83;6.70;;;4.10;99.90;;;;;;5035836;28;20267;-67
2022/02/13 08:37:43;;;;;;;6.60;5.90;;;4.30;99.90;;;;;;5025699;28;20214;-66
2022/02/13 08:40:12;;;;;;;11.47;8.23;;;4.50;99.90;;;;;;5027075;28;20194;-67
2022/02/13 08:42:41;;;;;;;8.93;6.47;;;4.60;99.90;;;;;;5028089;28;20224;-66
2022/02/13 08:45:11;;;;;;;9.40;6.07;;;4.80;99.90;;;;;;5026150;28;20258;-67
2022/02/13 08:47:39;;;;;;;7.37;6.00;;;4.90;99.90;;;;;;5024123;28;20367;-67
2022/02/13 08:50:08;;;;;;;7.43;6.23;;;5.00;99.90;;;;;;5021830;28;20607;-67
2022/02/13 08:52:39;;;;;;;9.27;6.17;;;5.00;99.90;;;;;;5033542;28;20209;-66
2022/02/13 08:55:08;;;;;;;5.83;5.33;;;5.10;99.90;;;;;;5039914;28;20216;-66
2022/02/13 08:57:37;;;;;;;9.77;6.13;;;5.10;99.90;;;;;;5026340;28;20229;-67
2022/02/13 09:00:12;;;;;;;9.43;6.87;;;5.00;99.90;;;;;;5030237;28;20567;-67
2022/02/13 09:02:41;;;;;;;9.17;6.93;;;5.10;99.90;;;;;;5031060;28;20734;-66
2022/02/13 09:05:10;;;;;;;11.97;9.20;;;5.30;99.90;;;;;;5030150;28;20221;-67
2022/02/13 09:07:39;;;;;;;29.90;20.37;;;5.30;99.90;;;;;;5033203;28;20229;-67
2022/02/13 09:10:09;;;;;;;60.37;28.23;;;5.50;99.90;;;;;;5029075;28;20208;-66
2022/02/13 09:12:38;;;;;;;24.13;12.77;;;5.60;99.90;;;;;;5026984;28;20259;-67
2022/02/13 09:15:08;;;;;;;26.30;12.90;;;5.70;99.90;;;;;;5026439;28;20660;-66
2022/02/13 09:17:39;;;;;;;50.40;22.60;;;5.50;99.90;;;;;;5034809;28;20222;-67
2022/02/13 09:20:08;;;;;;;21.80;14.20;;;5.40;99.90;;;;;;5022667;28;20331;-67
2022/02/13 09:22:37;;;;;;;11.53;8.10;;;5.30;99.90;;;;;;5032494;28;20262;-66
2022/02/13 09:25:06;;;;;;;10.43;7.90;;;5.40;99.90;;;;;;5014816;28;20737;-67
2022/02/13 09:27:35;;;;;;;26.13;15.47;;;5.50;99.90;;;;;;5021949;28;20684;-67
2022/02/13 09:30:05;;;;;;;38.03;21.80;;;5.50;99.90;;;;;;5018142;28;20193;-67
2022/02/13 09:32:33;;;;;;;24.77;14.73;;;5.50;99.90;;;;;;5032667;28;20375;-67
2022/02/13 09:35:03;;;;;;;9.23;6.73;;;5.70;99.90;;;;;;5018851;28;20186;-67
2022/02/13 09:37:31;;;;;;;13.93;8.33;;;5.90;99.90;;;;;;5021107;28;20201;-66
2022/02/13 09:40:00;;;;;;;14.57;9.50;;;5.90;99.90;;;;;;5019783;28;20229;-67
2022/02/13 09:42:29;;;;;;;11.07;8.70;;;6.00;99.90;;;;;;5021961;28;20227;-67
2022/02/13 09:44:58;;;;;;;31.87;19.73;;;6.00;99.90;;;;;;5017437;28;20346;-67
2022/02/13 09:47:28;;;;;;;16.20;10.47;;;6.00;99.90;;;;;;5012319;28;20225;-67
2022/02/13 09:49:57;;;;;;;11.03;7.57;;;6.00;99.90;;;;;;5021990;28;20229;-66
2022/02/13 09:52:27;;;;;;;21.80;14.27;;;6.00;99.90;;;;;;5025696;28;20280;-67
2022/02/13 09:54:56;;;;;;;16.67;10.23;;;5.90;99.90;;;;;;5016749;28;20202;-67
2022/02/13 10:00:14;;;;;;;7.57;5.97;;;5.90;99.90;;;;;;5022635;28;20227;-68
2022/02/13 10:02:44;;;;;;;9.03;7.73;;;6.00;99.90;;;;;;5023217;28;20213;-67
2022/02/13 10:05:14;;;;;;;9.37;8.17;;;6.10;99.90;;;;;;5020569;28;20200;-67
2022/02/13 10:07:44;;;;;;;8.77;6.10;;;6.20;99.90;;;;;;5027316;28;20228;-67
2022/02/13 10:10:13;;;;;;;10.10;6.43;;;6.30;99.90;;;;;;5022098;28;20605;-67
2022/02/13 10:12:45;;;;;;;6.60;5.67;;;6.50;99.90;;;;;;5038028;28;20197;-67
2022/02/13 10:15:27;;;;;;;8.40;6.23;;;6.60;99.90;;;;;;5026734;28;20687;-67
2022/02/13 10:17:56;;;;;;;8.53;5.90;;;6.60;99.90;;;;;;5022606;28;20309;-66
2022/02/13 10:20:29;;;;;;;8.33;6.13;;;6.60;99.90;;;;;;5024907;28;20652;-67
2022/02/13 10:23:04;;;;;;;11.77;6.57;;;6.50;99.90;;;;;;5033784;28;20697;-67
2022/02/13 10:25:33;;;;;;;8.60;6.57;;;6.70;99.90;;;;;;5029570;28;20347;-67
2022/02/13 10:28:10;;;;;;;7.87;6.23;;;6.80;99.90;;;;;;5032581;28;20212;-67
2022/02/13 10:30:40;;;;;;;7.30;6.00;;;6.90;99.90;;;;;;5026329;28;20217;-67
2022/02/13 10:33:20;;;;;;;8.60;6.80;;;6.90;99.90;;;;;;5031699;28;20623;-67
2022/02/13 10:36:10;;;;;;;6.37;5.73;;;6.90;99.90;;;;;;5028739;28;20201;-67
2022/02/13 10:38:41;;;;;;;8.00;6.00;;;7.00;99.90;;;;;;5018472;28;20275;-67
2022/02/13 10:41:18;;;;;;;8.67;6.43;;;7.30;99.90;;;;;;5025591;28;20205;-67
2022/02/13 10:44:01;;;;;;;7.47;6.67;;;7.60;99.90;;;;;;5026044;28;20205;-67
2022/02/13 10:46:31;;;;;;;14.23;6.23;;;7.70;99.90;;;;;;5020750;28;20229;-68
2022/02/13 10:49:00;;;;;;;14.77;10.07;;;7.90;99.90;;;;;;5026785;28;20225;-67
2022/02/13 10:51:30;;;;;;;12.83;9.40;;;8.20;99.90;;;;;;5033468;28;20331;-67
2022/02/13 10:54:02;;;;;;;10.07;8.03;;;8.30;99.90;;;;;;5031959;28;20197;-67
2022/02/13 10:56:31;;;;;;;9.23;6.20;;;8.60;99.90;;;;;;5031740;28;20205;-67
2022/02/13 10:59:02;;;;;;;8.20;7.00;;;8.90;99.90;;;;;;5047200;28;20250;-67
2022/02/13 11:01:32;;;;;;;10.70;6.00;;;9.20;99.90;;;;;;5024173;28;20387;-67
2022/02/13 11:04:04;;;;;;;8.33;6.07;;;9.30;99.90;;;;;;5037483;28;20659;-68
2022/02/13 11:06:33;;;;;;;7.83;5.67;;;9.30;99.90;;;;;;5038042;28;20240;-68
2022/02/13 11:09:10;;;;;;;6.30;5.70;;;9.50;99.90;;;;;;5021957;28;20715;-67
2022/02/13 11:11:44;;;;;;;7.30;6.30;;;9.30;99.90;;;;;;5029682;28;20275;-67
2022/02/13 11:14:26;;;;;;;6.10;5.60;;;9.30;99.90;;;;;;5026800;28;20793;-68
2022/02/13 11:16:57;;;;;;;6.60;5.87;;;9.20;99.90;;;;;;5029455;28;20710;-68
2022/02/13 11:19:25;;;;;;;6.47;5.70;;;9.20;99.90;;;;;;5028240;28;20301;-67
2022/02/13 11:21:54;;;;;;;6.07;5.50;;;9.50;99.90;;;;;;5025309;28;20232;-67
2022/02/13 11:24:28;;;;;;;12.33;5.53;;;9.50;99.90;;;;;;5046755;28;20236;-67
2022/02/13 11:27:00;;;;;;;7.83;5.67;;;9.80;99.90;;;;;;5028527;28;20209;-68
2022/02/13 11:29:51;;;;;;;12.50;11.20;;;10.00;99.90;;;;;;5035777;28;20201;-68
2022/02/13 11:32:45;;;;;;;8.73;6.90;;;10.30;99.90;;;;;;5018718;28;20210;-68
2022/02/13 11:35:15;;;;;;;6.93;5.33;;;10.40;99.90;;;;;;5013995;28;20197;-68
2022/02/13 11:37:45;;;;;;;5.10;4.60;;;10.40;99.90;;;;;;5030318;28;20926;-68
2022/02/13 11:40:49;;;;;;;5.50;4.90;;;10.30;99.90;;;;;;5031742;28;20682;-68
2022/02/13 11:43:17;;;;;;;5.10;4.70;;;10.40;99.90;;;;;;5012716;28;20205;-68
2022/02/13 11:45:47;;;;;;;5.20;4.67;;;10.60;99.90;;;;;;5019066;28;20666;-68
2022/02/13 11:48:39;;;;;;;5.97;4.93;;;10.60;99.90;;;;;;5023912;28;20190;-68
2022/02/13 11:51:13;;;;;;;5.87;4.60;;;10.60;99.90;;;;;;5024008;28;20197;-68
2022/02/13 11:53:43;;;;;;;5.47;4.70;;;10.50;99.90;;;;;;5021377;28;20198;-68
2022/02/13 11:56:27;;;;;;;5.47;5.00;;;10.20;99.90;;;;;;5023666;28;20201;-68
2022/02/13 11:58:57;;;;;;;8.30;5.67;;;10.20;99.90;;;;;;5033113;28;20274;-68
2022/02/13 12:01:41;;;;;;;5.93;4.93;;;10.30;99.90;;;;;;5026256;28;20251;-67
2022/02/13 12:04:11;;;;;;;7.57;4.83;;;10.40;99.90;;;;;;5029798;28;20288;-69
2022/02/13 12:06:40;;;;;;;6.33;5.73;;;10.30;99.90;;;;;;5026557;28;20229;-68
2022/02/13 12:09:11;;;;;;;9.20;7.27;;;10.00;99.90;;;;;;5033534;28;20208;-68
2022/02/13 12:11:43;;;;;;;10.90;6.27;;;10.10;99.90;;;;;;5026757;28;20268;-68
2022/02/13 12:14:15;;;;;;;10.83;6.77;;;10.00;99.90;;;;;;5035430;28;20229;-68
2022/02/13 12:16:50;;;;;;;11.37;6.23;;;9.70;99.90;;;;;;5040559;28;21788;-68
2022/02/13 12:19:35;;;;;;;8.30;6.80;;;9.70;99.90;;;;;;5030074;28;20300;-68
2022/02/13 12:22:15;;;;;;;11.13;6.37;;;9.80;99.90;;;;;;5029903;28;20876;-68
2022/02/13 12:24:45;;;;;;;8.33;6.33;;;9.90;99.90;;;;;;5016014;28;20212;-67
2022/02/13 12:27:17;;;;;;;12.20;6.07;;;9.80;99.90;;;;;;5025866;28;20202;-68
2022/02/13 12:29:53;;;;;;;10.37;7.20;;;9.70;99.90;;;;;;5029279;28;20209;-68
2022/02/13 12:32:26;;;;;;;11.23;6.90;;;9.60;99.90;;;;;;5006810;28;20980;-68
2022/02/13 12:34:57;;;;;;;11.23;7.20;;;9.50;99.90;;;;;;5030412;28;20726;-69
2022/02/13 12:37:38;;;;;;;10.40;7.20;;;9.50;99.90;;;;;;5039658;28;20185;-67
2022/02/13 12:40:08;;;;;;;11.40;6.70;;;9.50;99.90;;;;;;5021248;28;20225;-68
2022/02/13 12:42:40;;;;;;;12.50;8.47;;;9.60;99.90;;;;;;5027530;28;20202;-68
2022/02/13 12:45:10;;;;;;;12.20;7.03;;;9.60;99.90;;;;;;5036885;28;20205;-68
2022/02/13 12:47:42;;;;;;;13.83;6.93;;;9.50;99.90;;;;;;5030435;28;20205;-68
2022/02/13 12:50:12;;;;;;;11.40;6.60;;;9.40;99.90;;;;;;5031438;28;20194;-68
2022/02/13 12:52:42;;;;;;;9.27;6.73;;;9.50;99.90;;;;;;5026832;28;20292;-68
2022/02/13 12:55:13;;;;;;;12.27;7.10;;;9.50;99.90;;;;;;5034842;28;20193;-68
2022/02/13 12:57:48;;;;;;;9.97;7.00;;;9.60;99.90;;;;;;5014731;28;20327;-68
2022/02/13 13:00:19;;;;;;;11.47;6.43;;;9.60;99.90;;;;;;5015022;28;20304;-68
2022/02/13 13:02:56;;;;;;;13.03;6.77;;;9.80;99.90;;;;;;5013303;28;20973;-68
2022/02/13 13:05:31;;;;;;;9.07;6.20;;;9.80;99.90;;;;;;5026213;28;20209;-68
2022/02/13 13:08:14;;;;;;;11.30;6.73;;;9.80;99.90;;;;;;5022377;28;20688;-68